Time;durP1;ratioP1;P1;durP2;ratioP2;P2;SDS_P1;SDS_P2;PMS_P1;PMS_P2;Temp;Humidity;BMP_temperature;BMP_pressure;BME280_temperature;BME280_humidity;BME280_pressure;Samples;Min_cycle;Max_cycle;Signal;HPM_P1;HPM_P2
2024/01/24 00:04:04;;;;;;;2.97;2.00;;;6.50;99.90;;;7.01;100.00;98814.66;10310346;28;20236;-62
2024/01/24 00:09:07;;;;;;;4.20;2.10;;;6.60;99.90;;;7.08;100.00;98795.72;10312883;28;20234;-62
2024/01/24 00:14:12;;;;;;;3.70;2.07;;;6.60;99.90;;;7.10;100.00;98794.22;10309337;28;20338;-60
2024/01/24 00:19:15;;;;;;;3.53;2.07;;;6.60;99.90;;;7.08;100.00;98811.84;10313035;28;20238;-60
2024/01/24 00:24:18;;;;;;;4.17;2.23;;;6.60;99.90;;;7.12;100.00;98778.31;10311506;28;20627;-61
2024/01/24 00:29:23;;;;;;;3.37;2.10;;;6.60;99.90;;;7.21;100.00;98786.75;10310273;28;20231;-62
2024/01/24 00:34:26;;;;;;;3.60;2.07;;;6.70;99.90;;;7.21;100.00;98753.69;10311439;28;20231;-62
2024/01/24 00:39:29;;;;;;;3.20;2.30;;;6.70;99.90;;;7.29;100.00;98745.78;10312616;28;20738;-61
2024/01/24 00:44:34;;;;;;;3.33;2.00;;;6.80;99.90;;;7.40;100.00;98742.50;10309462;28;20230;-61
2024/01/24 00:49:37;;;;;;;3.90;2.40;;;6.80;99.90;;;7.45;100.00;98705.63;10311750;28;20231;-61
2024/01/24 00:54:40;;;;;;;4.90;2.20;;;6.90;99.90;;;7.39;100.00;98698.38;10310625;28;20227;-61
2024/01/24 00:59:45;;;;;;;2.03;1.70;;;6.80;99.90;;;7.42;99.55;98713.88;10321137;28;20345;-61
2024/01/24 01:04:48;;;;;;;3.47;1.80;;;6.90;99.90;;;7.45;97.30;98718.34;10431674;23;20233;-62
2024/01/24 01:09:51;;;;;;;2.33;1.60;;;7.00;99.90;;;7.48;97.89;98697.38;10446335;28;20228;-62
2024/01/24 01:14:55;;;;;;;4.07;1.97;;;7.00;99.90;;;7.56;98.08;98706.53;10438722;28;20382;-62
2024/01/24 01:19:59;;;;;;;1.90;1.70;;;7.10;99.90;;;7.64;97.80;98690.19;10408995;28;21210;-61
2024/01/24 01:25:03;;;;;;;1.90;1.60;;;7.10;99.90;;;7.71;98.24;98697.59;10416856;28;20848;-63
2024/01/24 01:30:09;;;;;;;1.93;1.43;;;7.20;99.90;;;7.86;95.25;98688.63;10435593;28;20235;-63
2024/01/24 01:35:12;;;;;;;2.53;1.87;;;7.30;99.90;;;7.92;94.74;98678.06;10398195;28;20700;-63
2024/01/24 01:40:15;;;;;;;4.03;1.87;;;7.40;99.90;;;8.01;95.24;98668.66;10430765;28;20945;-63
2024/01/24 01:45:20;;;;;;;3.13;1.80;;;7.50;99.90;;;8.01;94.84;98672.81;10426584;28;20226;-62
2024/01/24 01:50:23;;;;;;;3.70;1.77;;;7.50;99.90;;;8.12;95.16;98674.56;10418621;28;20226;-63
2024/01/24 01:55:27;;;;;;;1.83;1.67;;;7.60;99.90;;;8.49;92.33;98667.31;10404663;28;20236;-63
2024/01/24 02:00:33;;;;;;;3.42;1.98;;;7.80;99.90;;;8.44;93.36;98651.69;10398816;28;20226;-62
2024/01/24 02:05:37;;;;;;;2.33;1.60;;;7.90;99.90;;;8.45;94.24;98653.47;10423227;28;20366;-62
2024/01/24 02:10:41;;;;;;;1.55;1.45;;;7.90;99.90;;;8.63;92.88;98642.91;10431574;28;20233;-63
2024/01/24 02:15:46;;;;;;;3.25;1.90;;;8.10;99.90;;;8.67;93.29;98635.63;10432913;28;20236;-63
2024/01/24 02:20:49;;;;;;;5.43;2.08;;;8.10;99.90;;;8.69;92.81;98635.75;10431518;28;20228;-62
2024/01/24 02:25:54;;;;;;;4.28;2.00;;;8.20;99.90;;;8.72;93.24;98641.06;10413028;28;20240;-62
2024/01/24 02:30:57;;;;;;;2.88;1.90;;;8.30;99.90;;;8.92;91.64;98638.38;10401991;28;20241;-63
2024/01/24 02:36:00;;;;;;;3.92;1.98;;;8.30;99.90;;;8.88;92.12;98633.81;10393165;28;20233;-63
2024/01/24 02:41:05;;;;;;;2.10;1.98;;;8.30;99.90;;;8.88;92.46;98635.50;10433841;28;20221;-62
2024/01/24 02:46:09;;;;;;;2.33;1.50;;;8.30;99.90;;;8.83;91.48;98631.69;10420423;28;20228;-63
2024/01/24 02:51:12;;;;;;;3.92;2.25;;;8.30;99.90;;;8.91;91.37;98613.66;10419712;28;20229;-63
2024/01/24 02:56:16;;;;;;;3.08;2.00;;;8.20;99.90;;;8.82;93.22;98610.44;10430388;28;20565;-63
2024/01/24 03:01:19;;;;;;;1.98;1.80;;;8.20;99.90;;;8.78;94.06;98582.91;10422067;28;20233;-63
2024/01/24 03:06:23;;;;;;;2.70;1.73;;;8.10;99.90;;;8.56;94.03;98586.38;10395621;28;20720;-63
2024/01/24 03:11:27;;;;;;;3.70;1.77;;;7.90;99.90;;;8.66;94.83;98589.63;10391411;28;20229;-63
2024/01/24 03:16:31;;;;;;;2.47;1.50;;;7.90;99.90;;;8.74;94.22;98602.19;10427817;28;20233;-63
2024/01/24 03:21:34;;;;;;;3.03;1.80;;;8.00;99.90;;;8.68;95.02;98611.03;10421863;28;20233;-63
2024/01/24 03:26:38;;;;;;;3.83;1.70;;;8.00;99.90;;;8.63;95.75;98630.19;10389218;28;20242;-63
2024/01/24 03:31:43;;;;;;;2.95;1.85;;;7.90;99.90;;;8.56;96.17;98622.06;10389721;28;20977;-63
2024/01/24 03:36:47;;;;;;;3.38;1.90;;;7.90;99.90;;;8.55;96.38;98597.34;10389360;28;20225;-63
2024/01/24 03:41:52;;;;;;;2.30;2.10;;;7.90;99.90;;;8.51;97.43;98612.28;10396110;28;20292;-62
2024/01/24 03:46:55;;;;;;;2.83;1.63;;;7.90;99.90;;;8.63;97.93;98619.97;10420946;28;20228;-64
2024/01/24 03:51:58;;;;;;;2.17;1.85;;;8.00;99.90;;;8.90;96.12;98606.81;10390940;28;20569;-63
2024/01/24 03:57:03;;;;;;;3.67;2.22;;;8.20;99.90;;;9.05;95.08;98595.97;10429409;28;20275;-64
2024/01/24 04:02:06;;;;;;;4.18;2.03;;;8.50;99.90;;;9.29;95.15;98609.66;10428216;28;20236;-63
2024/01/24 04:07:13;;;;;;;3.33;1.90;;;8.70;99.90;;;9.60;93.89;98598.38;10399643;28;20231;-62
2024/01/24 04:12:17;;;;;;;2.58;1.77;;;9.10;99.90;;;9.93;91.34;98578.59;10424563;28;20776;-61
2024/01/24 04:17:21;;;;;;;2.88;1.92;;;9.50;99.90;;;9.98;91.54;98578.91;10428834;28;20229;-63
2024/01/24 04:22:24;;;;;;;3.47;1.83;;;9.60;99.90;;;10.33;89.82;98587.44;10396621;28;20237;-61
2024/01/24 04:27:28;;;;;;;4.32;2.10;;;10.00;99.90;;;10.49;89.44;98578.25;10415404;28;20231;-63
2024/01/24 04:32:32;;;;;;;3.33;2.00;;;10.10;99.90;;;10.52;90.01;98598.91;10417747;28;20271;-63
2024/01/24 04:37:35;;;;;;;4.00;2.03;;;10.20;99.90;;;10.60;89.50;98592.66;10393430;28;20239;-62
2024/01/24 04:42:40;;;;;;;3.42;2.10;;;10.30;99.90;;;10.74;88.53;98601.28;10416220;28;20225;-63
2024/01/24 04:47:44;;;;;;;3.47;1.83;;;10.50;99.90;;;10.82;88.48;98601.03;10400405;28;20235;-63
2024/01/24 04:52:48;;;;;;;4.03;2.28;;;10.60;99.90;;;10.88;88.84;98589.44;10417636;28;20353;-64
2024/01/24 04:57:52;;;;;;;3.85;2.13;;;10.70;99.90;;;10.87;88.85;98590.19;10400901;28;20743;-63
2024/01/24 05:02:55;;;;;;;4.80;2.10;;;10.60;99.90;;;10.90;89.10;98608.31;10411544;28;20616;-63
2024/01/24 05:07:59;;;;;;;3.88;1.90;;;10.60;99.90;;;11.04;87.94;98593.13;10400560;28;20221;-63
2024/01/24 05:13:04;;;;;;;4.65;2.08;;;10.80;99.90;;;11.01;88.71;98585.22;10401139;28;20225;-63
2024/01/24 05:18:07;;;;;;;3.90;2.10;;;10.90;99.90;;;11.08;88.79;98596.78;10432864;28;20897;-63
2024/01/24 05:23:10;;;;;;;3.90;1.90;;;10.80;99.90;;;11.15;88.22;98575.91;10424074;28;20431;-62
2024/01/24 05:28:15;;;;;;;3.55;1.98;;;10.90;99.90;;;11.12;88.91;98580.84;10430281;28;20236;-62
2024/01/24 05:33:18;;;;;;;3.05;2.00;;;10.90;99.90;;;11.21;89.16;98596.78;10431269;28;20244;-63
2024/01/24 05:38:22;;;;;;;3.45;2.30;;;10.80;99.90;;;11.17;88.94;98610.19;10419009;28;20231;-63
2024/01/24 05:43:26;;;;;;;3.22;1.92;;;10.70;99.90;;;11.26;89.26;98605.66;10430713;28;20237;-62
2024/01/24 05:48:29;;;;;;;2.80;2.08;;;10.80;99.90;;;11.23;89.29;98597.78;10423420;28;20625;-63
2024/01/24 05:53:33;;;;;;;3.05;1.92;;;10.70;99.90;;;11.30;89.33;98595.63;10408301;28;20225;-64
2024/01/24 05:58:38;;;;;;;3.25;2.10;;;10.80;99.90;;;11.32;89.73;98604.31;10430603;28;20245;-62
2024/01/24 06:03:42;;;;;;;2.08;1.83;;;10.80;99.90;;;11.31;90.19;98599.97;10415160;28;20229;-65
2024/01/24 06:08:45;;;;;;;2.33;2.13;;;10.80;99.90;;;11.43;90.16;98580.31;10441736;28;20228;-65
2024/01/24 06:13:49;;;;;;;4.82;3.38;;;11.10;99.90;;;11.45;90.66;98565.94;10411161;28;20236;-63
2024/01/24 06:18:53;;;;;;;3.35;2.50;;;11.20;99.90;;;11.57;90.32;98568.41;10426971;28;20746;-64
2024/01/24 06:23:56;;;;;;;3.33;2.15;;;11.30;99.90;;;11.61;91.13;98560.13;10440570;28;20243;-63
2024/01/24 06:29:01;;;;;;;2.55;2.03;;;11.30;99.90;;;11.68;90.82;98570.84;10440051;28;20221;-63
2024/01/24 06:34:04;;;;;;;3.50;2.58;;;11.20;99.90;;;11.73;90.67;98559.25;10425327;28;20703;-63
2024/01/24 06:39:07;;;;;;;2.10;1.83;;;11.40;99.90;;;11.73;91.43;98561.81;10422153;28;20727;-64
2024/01/24 06:44:12;;;;;;;3.67;2.45;;;11.40;99.90;;;11.73;91.71;98579.72;10436197;28;20232;-62
2024/01/24 06:49:15;;;;;;;2.85;2.10;;;11.30;99.90;;;11.92;91.61;98555.31;10423739;28;20229;-63
2024/01/24 06:54:18;;;;;;;4.28;1.95;;;11.50;99.90;;;11.87;91.36;98572.03;10435296;28;20650;-63
2024/01/24 06:59:23;;;;;;;2.13;1.80;;;11.50;99.90;;;11.92;92.93;98555.31;10433679;28;20230;-63
2024/01/24 07:04:27;;;;;;;2.30;1.77;;;11.70;99.90;;;11.82;94.22;98552.94;10411146;28;20323;-63
2024/01/24 07:09:31;;;;;;;2.53;2.13;;;11.60;99.90;;;11.76;96.12;98534.59;10398633;28;20237;-63
2024/01/24 07:14:35;;;;;;;8.23;3.67;;;11.50;99.90;;;11.69;97.49;98531.66;10428250;28;20229;-63
2024/01/24 07:19:38;;;;;;;9.25;8.48;;;11.50;99.90;;;11.64;98.31;98527.91;10431832;28;20598;-63
2024/01/24 07:24:44;;;;;;;3.15;2.60;;;11.50;99.90;;;11.77;97.25;98523.56;10425705;28;20229;-63
2024/01/24 07:29:50;;;;;;;5.07;4.68;;;11.40;99.90;;;11.77;97.50;98508.22;10411787;28;20785;-63
2024/01/24 07:34:53;;;;;;;4.43;2.65;;;11.50;99.90;;;11.77;96.56;98508.22;10399682;28;20246;-63
2024/01/24 07:39:56;;;;;;;4.07;2.50;;;11.50;99.90;;;11.96;95.28;98493.25;10390286;28;20240;-63
2024/01/24 07:45:01;;;;;;;2.78;2.00;;;11.60;99.90;;;12.00;94.81;98492.63;10404473;28;20731;-63
2024/01/24 07:50:05;;;;;;;2.65;1.65;;;11.70;99.90;;;12.10;93.38;98469.34;10433147;28;20301;-64
2024/01/24 07:55:10;;;;;;;1.90;1.77;;;11.80;99.90;;;12.23;92.74;98493.16;10421926;28;20701;-63
2024/01/24 08:00:17;;;;;;;2.95;2.20;;;12.00;99.90;;;12.28;92.77;98509.69;10409346;28;20229;-64
2024/01/24 08:05:23;;;;;;;2.55;1.70;;;12.00;99.90;;;12.44;90.71;98504.69;10402203;28;20265;-63
2024/01/24 08:10:26;;;;;;;2.65;1.80;;;12.20;99.90;;;12.54;90.18;98501.88;10410754;28;20224;-63
2024/01/24 08:15:31;;;;;;;1.77;1.58;;;12.30;99.90;;;12.48;90.70;98519.47;10417690;28;20704;-63
2024/01/24 08:20:35;;;;;;;2.05;1.50;;;12.10;99.90;;;12.64;89.46;98505.88;10417243;28;20317;-63
2024/01/24 08:25:38;;;;;;;6.03;3.97;;;12.30;99.90;;;12.70;89.02;98515.59;10428573;28;20289;-63
2024/01/24 08:30:43;;;;;;;20.23;13.90;;;12.40;99.90;;;12.69;89.41;98532.69;10402014;28;20264;-63
2024/01/24 08:35:46;;;;;;;1.73;1.60;;;12.40;99.90;;;12.75;88.02;98524.47;10427477;28;20317;-63
2024/01/24 08:40:50;;;;;;;1.58;1.48;;;12.50;99.90;;;12.79;87.69;98526.41;10430815;28;20229;-63
2024/01/24 08:45:55;;;;;;;1.60;1.50;;;12.50;99.90;;;12.90;86.98;98530.50;10433374;28;20228;-63
2024/01/24 08:50:58;;;;;;;1.50;1.30;;;12.50;99.90;;;12.95;87.30;98529.09;10393323;28;20697;-63
2024/01/24 08:56:01;;;;;;;1.80;1.70;;;12.50;99.90;;;13.00;87.09;98535.38;10397419;28;20222;-63
2024/01/24 09:01:07;;;;;;;1.80;1.70;;;12.60;99.90;;;12.98;87.38;98534.38;10430402;28;20229;-62
2024/01/24 09:06:11;;;;;;;1.67;1.58;;;12.70;99.90;;;13.07;86.74;98516.97;10419050;28;20229;-63
2024/01/24 09:11:15;;;;;;;1.88;1.30;;;12.80;99.90;;;13.07;87.52;98531.47;10427842;28;20225;-63
2024/01/24 09:16:19;;;;;;;1.13;1.13;;;12.80;99.90;;;13.12;87.32;98535.19;10428874;28;20232;-62
2024/01/24 09:21:23;;;;;;;0.88;0.88;;;12.80;99.90;;;13.26;86.74;98551.44;10437199;28;20225;-63
2024/01/24 09:26:26;;;;;;;1.05;0.80;;;12.90;99.90;;;13.25;86.79;98567.63;10414424;28;20225;-63
2024/01/24 09:31:31;;;;;;;1.50;1.40;;;12.80;99.90;;;13.21;87.35;98552.81;10402376;28;20370;-63
2024/01/24 09:36:34;;;;;;;1.27;1.27;;;12.80;99.90;;;13.29;87.60;98541.34;10433169;28;20240;-63
2024/01/24 09:41:41;;;;;;;1.27;1.27;;;13.00;99.90;;;13.35;88.34;98551.97;10426365;28;21164;-63
2024/01/24 09:46:48;;;;;;;2.00;1.90;;;12.90;99.90;;;13.30;87.79;98543.09;10432449;28;20656;-62
2024/01/24 09:51:54;;;;;;;1.70;1.60;;;12.90;99.90;;;13.36;87.95;98550.28;10435611;28;20236;-63
2024/01/24 09:56:59;;;;;;;1.10;1.10;;;13.00;99.90;;;13.35;89.28;98557.09;10438592;28;20259;-62
2024/01/24 10:02:05;;;;;;;1.20;1.20;;;13.00;99.90;;;13.40;88.59;98549.66;10406011;28;20639;-64
2024/01/24 10:07:09;;;;;;;1.33;1.23;;;13.10;99.90;;;13.43;89.99;98568.69;10434128;28;20213;-63
2024/01/24 10:12:12;;;;;;;3.22;3.03;;;13.20;99.90;;;13.55;89.96;98575.31;10417950;28;20699;-63
2024/01/24 10:17:17;;;;;;;3.47;3.10;;;13.20;99.90;;;13.71;89.48;98573.72;10408976;28;20233;-63
2024/01/24 10:22:21;;;;;;;1.20;1.20;;;13.30;99.90;;;14.01;87.45;98577.91;10384539;28;20823;-63
2024/01/24 10:27:24;;;;;;;1.23;1.10;;;13.70;99.90;;;13.93;87.08;98586.06;10389017;28;20257;-63
2024/01/24 10:32:34;;;;;;;1.20;1.20;;;13.60;99.90;;;13.78;88.12;98585.22;10413223;28;20229;-63
2024/01/24 10:37:37;;;;;;;1.30;1.23;;;13.40;99.90;;;13.77;88.56;98562.91;10397440;28;20701;-64
2024/01/24 10:42:43;;;;;;;1.30;1.30;;;13.30;99.90;;;13.83;88.08;98596.63;10427812;28;20569;-64
2024/01/24 10:47:49;;;;;;;1.15;0.80;;;13.50;99.90;;;14.05;87.01;98606.44;10421156;28;20764;-63
2024/01/24 10:52:53;;;;;;;0.98;0.98;;;13.80;99.90;;;14.01;86.87;98578.78;10434491;28;20228;-63
2024/01/24 10:57:57;;;;;;;1.70;1.60;;;13.70;99.90;;;14.04;87.11;98578.94;10422058;28;20316;-63
2024/01/24 11:03:04;;;;;;;1.00;1.00;;;13.60;99.90;;;13.83;89.95;98595.75;10388427;28;20229;-64
2024/01/24 11:08:11;;;;;;;1.00;1.00;;;13.50;99.90;;;13.51;93.70;98623.97;10418931;28;20652;-64
2024/01/24 11:13:18;;;;;;;1.20;1.20;;;13.10;99.90;;;13.14;97.39;98632.84;10429275;28;20742;-63
2024/01/24 11:18:31;;;;;;;1.30;1.20;;;12.90;99.90;;;12.93;100.00;98638.44;10428514;28;20632;-61
2024/01/24 11:23:40;;;;;;;1.10;1.10;;;12.70;99.90;;;12.93;100.00;98617.03;10430638;28;20287;-61
2024/01/24 11:28:45;;;;;;;0.93;0.93;;;12.50;99.90;;;13.06;99.36;98627.25;10414030;28;20704;-64
2024/01/24 11:34:09;;;;;;;1.20;1.20;;;12.50;99.90;;;12.80;100.00;98641.06;10386270;28;20233;-65
2024/01/24 11:39:37;;;;;;;1.25;0.95;;;12.40;99.90;;;12.63;100.00;98648.63;10433774;28;21464;-62
2024/01/24 11:44:40;;;;;;;1.20;1.20;;;12.20;99.90;;;12.36;100.00;98663.19;10435501;28;20228;-63
2024/01/24 11:49:50;;;;;;;1.60;1.50;;;12.00;99.90;;;12.31;100.00;98679.06;10432763;28;20229;-63
2024/01/24 11:54:54;;;;;;;2.15;2.05;;;11.80;99.90;;;12.25;100.00;98688.94;10417580;28;20228;-63
2024/01/24 11:59:58;;;;;;;1.25;1.25;;;11.80;99.90;;;12.20;100.00;98680.06;10417972;28;20237;-63
2024/01/24 12:05:05;;;;;;;1.10;1.10;;;11.70;99.90;;;12.12;100.00;98657.38;10429077;28;20233;-63
2024/01/24 12:10:09;;;;;;;1.20;1.20;;;11.70;99.90;;;12.04;100.00;98673.94;10406465;28;20225;-64
2024/01/24 12:15:13;;;;;;;1.45;1.30;;;11.60;99.90;;;12.07;100.00;98676.69;10385751;28;20812;-63
2024/01/24 12:20:18;;;;;;;1.45;1.20;;;11.60;99.90;;;12.14;100.00;98685.69;10395824;28;20236;-63
2024/01/24 12:25:22;;;;;;;2.72;2.42;;;11.70;99.90;;;12.20;100.00;98672.38;10427290;28;20324;-63
2024/01/24 12:30:32;;;;;;;1.83;1.73;;;11.60;99.90;;;12.32;100.00;98665.44;10381876;28;20237;-63
2024/01/24 12:35:37;;;;;;;1.50;1.40;;;11.70;99.90;;;12.10;100.00;98668.31;10378933;28;20722;-63
2024/01/24 12:40:40;;;;;;;2.25;1.50;;;11.60;99.90;;;11.98;100.00;98658.16;10380481;28;20229;-63
2024/01/24 12:45:45;;;;;;;2.67;1.73;;;11.50;99.90;;;11.99;100.00;98669.28;10381330;28;20227;-63
2024/01/24 12:50:49;;;;;;;2.60;2.00;;;11.50;99.90;;;11.81;100.00;98681.75;10379764;28;20226;-63
2024/01/24 12:55:53;;;;;;;2.08;1.27;;;11.40;99.90;;;11.94;100.00;98671.56;10391947;28;20704;-63
2024/01/24 13:00:56;;;;;;;2.33;1.50;;;11.60;99.90;;;11.90;100.00;98669.59;10414879;28;20229;-63
2024/01/24 13:06:01;;;;;;;2.63;1.52;;;11.60;99.90;;;11.69;100.00;98656.25;10438405;28;20221;-63
2024/01/24 13:11:05;;;;;;;3.85;1.52;;;11.50;99.90;;;11.60;100.00;98660.78;10411658;28;20225;-63
2024/01/24 13:16:08;;;;;;;1.50;1.40;;;11.30;99.90;;;11.56;100.00;98669.00;10413413;28;20248;-65
2024/01/24 13:21:13;;;;;;;2.25;1.65;;;11.20;99.90;;;11.52;100.00;98644.91;10416582;28;20283;-63
2024/01/24 13:26:16;;;;;;;3.20;1.60;;;11.10;99.90;;;11.56;100.00;98652.00;10433295;28;20227;-63
2024/01/24 13:31:19;;;;;;;1.90;1.80;;;11.20;99.90;;;11.62;100.00;98642.16;10433682;28;20239;-63
2024/01/24 13:36:24;;;;;;;3.22;1.80;;;11.20;99.90;;;11.49;100.00;98650.69;10431069;28;20260;-63
2024/01/24 13:41:27;;;;;;;4.30;3.22;;;11.10;99.90;;;11.66;100.00;98674.84;10424942;28;20237;-62
2024/01/24 13:46:31;;;;;;;4.25;1.95;;;11.20;99.90;;;11.54;100.00;98668.94;10416573;28;20642;-64
2024/01/24 13:51:35;;;;;;;6.10;2.03;;;11.20;99.90;;;11.65;100.00;98649.16;10400504;28;20650;-64
2024/01/24 13:56:47;;;;;;;3.15;1.35;;;11.30;99.90;;;11.65;100.00;98646.59;10408556;28;20300;-63
2024/01/24 14:01:50;;;;;;;2.38;1.52;;;11.40;99.90;;;11.64;99.71;98675.53;10395374;28;20236;-63
2024/01/24 14:07:04;;;;;;;1.98;1.73;;;11.40;99.90;;;11.47;95.52;98685.56;10414191;28;20224;-63
2024/01/24 14:12:08;;;;;;;5.50;2.15;;;11.30;99.90;;;11.40;98.08;98700.41;10400852;28;20237;-64
2024/01/24 14:17:11;;;;;;;5.40;1.83;;;11.00;99.90;;;11.21;94.98;98711.06;10416559;28;20317;-63
2024/01/24 14:22:16;;;;;;;4.97;2.45;;;10.90;99.90;;;11.10;98.22;98725.66;10416498;28;20371;-63
2024/01/24 14:27:21;;;;;;;5.30;2.47;;;10.70;99.90;;;11.02;96.75;98725.16;10410490;28;20708;-63
2024/01/24 14:32:24;;;;;;;2.38;1.85;;;10.70;99.90;;;10.98;99.74;98735.06;10415992;28;20226;-63
2024/01/24 14:37:29;;;;;;;6.22;3.35;;;10.60;99.90;;;11.12;98.35;98759.94;10395357;28;20710;-63
2024/01/24 14:42:35;;;;;;;4.40;2.50;;;10.70;99.90;;;10.86;97.62;98755.56;10408747;28;20260;-63
2024/01/24 14:47:38;;;;;;;4.72;2.72;;;10.40;99.90;;;10.93;96.80;98777.31;10396162;28;20222;-63
2024/01/24 14:52:43;;;;;;;5.03;2.22;;;10.50;99.90;;;10.94;97.71;98797.91;10418573;28;20233;-63
2024/01/24 14:57:46;;;;;;;5.25;2.25;;;10.50;99.90;;;11.02;95.93;98799.34;10396540;28;20650;-62
2024/01/24 15:02:50;;;;;;;5.55;3.72;;;10.60;99.90;;;11.00;98.42;98806.00;10400161;28;20524;-63
2024/01/24 15:07:55;;;;;;;4.80;2.97;;;10.50;99.90;;;10.96;96.65;98808.22;10417582;28;20225;-63
2024/01/24 15:18:07;;;;;;;5.90;3.00;;;10.70;99.90;;;11.16;93.27;98838.69;10265627;28;20216;-61
2024/01/24 15:23:12;;;;;;;4.78;2.80;;;10.70;99.90;;;11.20;94.80;98847.47;10284877;28;20224;-61
2024/01/24 15:28:16;;;;;;;4.03;2.45;;;10.70;99.90;;;11.24;94.94;98862.25;10286026;28;20554;-61
2024/01/24 15:33:19;;;;;;;5.05;2.67;;;10.70;99.90;;;11.13;94.15;98868.28;10286726;28;20240;-61
2024/01/24 15:38:25;;;;;;;5.95;2.60;;;10.60;99.90;;;11.29;93.70;98871.16;10290202;28;20991;-61
2024/01/24 15:43:28;;;;;;;6.35;3.00;;;10.70;99.90;;;11.21;93.05;98878.28;10293056;28;20238;-62
2024/01/24 15:48:31;;;;;;;5.63;2.72;;;10.70;99.90;;;11.08;94.96;98879.88;10308720;28;20232;-61
2024/01/24 15:53:36;;;;;;;6.47;3.00;;;10.50;99.90;;;11.20;89.47;98884.19;10292670;28;21118;-62
2024/01/24 15:58:39;;;;;;;4.97;2.80;;;10.50;99.90;;;11.29;86.97;98881.38;10298809;28;20242;-61
2024/01/24 16:03:43;;;;;;;5.90;2.42;;;10.70;99.90;;;10.94;86.69;98896.78;10297866;28;20576;-60
2024/01/24 16:08:47;;;;;;;6.78;2.63;;;10.40;99.90;;;10.91;86.70;98907.69;10286501;28;20232;-61
2024/01/24 16:13:51;;;;;;;6.38;3.05;;;10.30;99.90;;;10.89;87.72;98919.47;10297086;28;20330;-61
2024/01/24 16:18:55;;;;;;;6.25;3.03;;;10.30;99.90;;;10.98;86.97;98929.47;10324467;28;20241;-61
2024/01/24 16:23:59;;;;;;;8.38;2.63;;;10.30;99.90;;;10.71;89.28;98915.56;10324054;28;20262;-60
2024/01/24 16:29:02;;;;;;;7.28;2.85;;;10.10;99.90;;;10.91;86.87;98922.16;10333334;28;20229;-59
2024/01/24 16:34:05;;;;;;;6.35;2.83;;;10.20;99.90;;;10.86;86.28;98939.69;10339648;28;20237;-61
2024/01/24 16:39:10;;;;;;;4.97;2.67;;;10.20;99.90;;;10.88;86.88;98950.06;10346479;28;20230;-57
2024/01/24 16:44:14;;;;;;;9.82;4.35;;;10.20;99.90;;;10.66;87.55;98957.81;10333149;28;20253;-61
2024/01/24 16:49:17;;;;;;;43.92;31.17;;;10.00;99.90;;;10.75;87.78;98961.03;10354326;28;20266;-61
2024/01/24 16:54:21;;;;;;;11.20;7.93;;;10.00;99.90;;;10.89;86.72;98967.16;10354597;28;20230;-61
2024/01/24 16:59:25;;;;;;;10.32;6.97;;;10.20;99.90;;;10.74;87.34;98970.38;10348627;28;20614;-61
2024/01/24 17:04:28;;;;;;;6.40;4.20;;;10.00;99.90;;;10.58;89.58;98959.78;10344348;28;20230;-60
2024/01/24 17:09:33;;;;;;;10.98;4.57;;;9.90;99.90;;;10.80;87.24;98973.38;10345595;28;20340;-59
2024/01/24 17:14:38;;;;;;;7.10;3.58;;;10.00;99.90;;;10.65;88.71;98994.38;10337557;28;20733;-61
2024/01/24 17:19:41;;;;;;;9.02;3.33;;;9.90;99.90;;;10.67;87.46;98993.69;10349194;28;20231;-61
2024/01/24 17:24:46;;;;;;;6.10;3.55;;;9.90;99.90;;;10.58;89.03;98985.34;10352565;28;20725;-61
2024/01/24 17:29:49;;;;;;;7.97;3.10;;;9.80;99.90;;;10.44;88.50;98989.41;10356712;28;20318;-61
2024/01/24 17:34:53;;;;;;;7.80;3.63;;;9.80;99.90;;;10.44;89.93;98973.19;10353661;28;20239;-60
2024/01/24 17:39:58;;;;;;;8.88;3.10;;;9.70;99.90;;;10.40;89.15;98963.53;10362950;28;20258;-61
2024/01/24 17:45:01;;;;;;;5.32;3.40;;;9.70;99.90;;;10.44;89.68;98963.84;10357497;28;20776;-61
2024/01/24 17:50:06;;;;;;;9.82;3.78;;;9.60;99.90;;;10.28;89.83;98982.25;10384446;28;20229;-64
2024/01/24 17:55:11;;;;;;;9.23;3.80;;;9.50;99.90;;;10.40;86.78;98986.53;10375565;28;20636;-61
2024/01/24 18:00:16;;;;;;;7.88;3.90;;;9.60;99.90;;;10.27;86.73;98974.47;10372890;28;20313;-61
2024/01/24 18:05:19;;;;;;;11.00;4.93;;;9.60;99.90;;;10.20;87.03;98998.63;10365371;28;20237;-61
2024/01/24 18:10:24;;;;;;;12.18;4.45;;;9.60;99.90;;;10.02;87.53;99008.31;10355206;28;20585;-62
2024/01/24 18:15:27;;;;;;;6.85;3.00;;;9.30;99.90;;;9.96;86.93;98989.97;10355626;28;20236;-63
2024/01/24 18:20:32;;;;;;;7.55;3.30;;;9.30;99.90;;;9.90;86.76;99005.72;10361557;28;20725;-63
2024/01/24 18:25:36;;;;;;;9.73;3.13;;;9.10;99.90;;;9.88;85.25;99009.81;10400957;28;20233;-63
2024/01/24 18:30:39;;;;;;;10.25;3.90;;;9.10;99.90;;;9.58;87.60;99031.22;10361383;28;20230;-62
2024/01/24 18:35:43;;;;;;;8.88;3.80;;;8.90;99.90;;;9.58;87.24;99050.75;10359487;28;20234;-62
2024/01/24 18:40:48;;;;;;;8.88;3.55;;;8.90;99.90;;;9.59;86.85;99039.81;10359449;28;20311;-61
2024/01/24 18:45:53;;;;;;;12.68;4.22;;;8.80;99.90;;;9.55;86.78;99055.63;10348813;28;20304;-62
2024/01/24 18:50:56;;;;;;;7.88;3.75;;;8.80;99.90;;;9.59;84.44;99073.00;10345650;28;20222;-62
2024/01/24 18:56:05;;;;;;;11.02;4.10;;;8.80;99.90;;;9.40;84.71;99062.94;10335168;28;20227;-63
2024/01/24 19:01:08;;;;;;;8.23;3.63;;;8.60;99.90;;;9.31;85.44;99075.84;10369296;28;20603;-63
2024/01/24 19:06:12;;;;;;;12.05;4.40;;;8.60;99.90;;;9.23;84.13;99076.88;10354519;28;20237;-61
2024/01/24 19:11:17;;;;;;;10.32;3.78;;;8.50;99.90;;;9.19;84.68;99072.31;10357189;28;20603;-63
2024/01/24 19:16:20;;;;;;;9.57;4.20;;;8.40;99.90;;;8.93;85.35;99080.38;10353156;28;20340;-61
2024/01/24 19:21:24;;;;;;;13.65;4.20;;;8.30;99.90;;;8.83;85.83;99080.34;10352558;28;20332;-60
2024/01/24 19:26:32;;;;;;;8.18;4.05;;;8.10;99.90;;;8.75;86.68;99092.44;10350535;28;20368;-62
2024/01/24 19:31:36;;;;;;;18.70;7.00;;;8.10;99.90;;;8.69;86.52;99090.28;10353250;28;20666;-62
2024/01/24 19:36:39;;;;;;;158.35;69.20;;;8.00;99.90;;;8.67;87.31;99098.53;10353492;28;20361;-62
2024/01/24 19:41:43;;;;;;;27.25;15.27;;;7.90;99.90;;;8.68;87.75;99096.13;10348517;28;20318;-62
2024/01/24 19:46:47;;;;;;;13.65;4.57;;;8.00;99.90;;;8.60;87.71;99086.94;10347795;28;20724;-62
2024/01/24 19:51:50;;;;;;;11.40;6.13;;;7.90;99.90;;;8.54;88.18;99106.81;10349172;28;20631;-61
2024/01/24 19:56:57;;;;;;;12.43;5.60;;;7.90;99.90;;;8.46;88.33;99090.88;10355099;28;20230;-62
2024/01/24 20:02:02;;;;;;;26.52;10.25;;;7.70;99.90;;;8.41;89.15;99099.78;10342649;28;20226;-61
2024/01/24 20:07:05;;;;;;;19.70;7.15;;;7.70;99.90;;;8.61;88.05;99080.19;10331696;28;20233;-61
2024/01/24 20:12:10;;;;;;;12.00;5.15;;;7.80;99.90;;;8.46;88.26;99078.13;10337646;28;20361;-63
2024/01/24 20:17:15;;;;;;;8.95;4.65;;;7.70;99.90;;;8.37;89.12;99067.13;10331127;28;20241;-62
2024/01/24 20:22:18;;;;;;;13.30;4.90;;;7.70;99.90;;;8.30;90.00;99069.94;10328364;28;20320;-62
2024/01/24 20:27:23;;;;;;;9.95;4.50;;;7.60;99.90;;;8.28;90.09;99054.50;10329434;28;20321;-62
2024/01/24 20:32:27;;;;;;;13.20;4.90;;;7.60;99.90;;;8.22;90.86;99059.09;10337424;28;20417;-62
2024/01/24 20:37:30;;;;;;;11.38;4.55;;;7.50;99.90;;;8.24;90.16;99049.00;10329751;28;20938;-62
2024/01/24 20:42:34;;;;;;;12.17;4.67;;;7.60;99.90;;;8.25;90.27;99053.38;10329456;28;20411;-62
2024/01/24 20:47:38;;;;;;;10.10;4.60;;;7.50;99.90;;;8.16;90.54;99058.56;10332393;28;20230;-62
2024/01/24 20:52:41;;;;;;;11.57;4.13;;;7.40;99.90;;;8.18;90.88;99056.13;10329666;28;20223;-61
2024/01/24 20:57:45;;;;;;;10.63;4.97;;;7.50;99.90;;;8.17;91.01;99056.91;10328682;28;20242;-61
2024/01/24 21:02:51;;;;;;;13.67;4.50;;;7.40;99.90;;;8.04;91.43;99053.31;10330215;28;20230;-61
2024/01/24 21:07:56;;;;;;;15.67;5.20;;;7.40;99.90;;;8.18;90.57;99043.41;10349774;28;20601;-61
2024/01/24 21:13:00;;;;;;;13.60;5.27;;;7.50;99.90;;;8.07;91.19;99056.13;10347541;28;20651;-61
2024/01/24 21:18:05;;;;;;;14.97;5.97;;;7.50;99.90;;;8.13;91.56;99050.66;10351374;28;20275;-61